| Date | Time | Temp. (oF) | Dew Point (oF) | Rel. Hum. (%) | Press. (in.) | Wind Dir. (deg.) | Wind Speed (mph) | Hourly Rainfall (i n.) |
|
|---|---|---|---|---|---|---|---|---|---|
| 1 | 07/13 | 24:00 | 64 | 59 | 84 | 30.40 | 340 | 0 | 0.00 |
| 2 | 07/12 | 23:00 | 64 | 58 | 81 | 30.40 | 340 | 1 | 0.00 |
| 3 | 07/12 | 22:00 | 65 | 58 | 79 | 30.40 | 340 | 0 | 0.00 |
| 4 | 07/12 | 21:00 | 66 | 58 | 77 | 30.38 | 340 | 1 | 0.00 |
| 5 | 07/12 | 20:00 | 68 | 59 | 74 | 30.37 | 130 | 0 | 0.00 |
| 6 | 07/12 | 19:00 | 68 | 58 | 73 | 30.35 | 130 | 0 | 0.00 |
| 7 | 07/12 | 18:00 | 70 | 57 | 65 | 30.34 | 130 | 0 | 0.00 |
| 8 | 07/12 | 17:00 | 71 | 54 | 57 | 30.35 | 130 | 1 | 0.00 |
| 9 | 07/12 | 16:00 | 72 | 56 | 59 | 30.35 | 130 | 0 | 0.00 |
| 10 | 07/12 | 15:00 | 72 | 55 | 57 | 30.36 | 130 | 0 | 0.00 |
| 11 | 07/12 | 14:00 | 72 | 55 | 57 | 30.36 | 110 | 2 | 0.00 |
| 12 | 07/12 | 13:00 | 73 | 56 | 57 | 30.38 | 130 | 1 | 0.00 |
| 13 | 07/12 | 12:00 | 72 | 53 | 52 | 30.39 | 130 | 7 | 0.00 |
| 14 | 07/12 | 11:00 | 71 | 54 | 56 | 30.37 | 190 | 2 | 0.00 |
| 15 | 07/12 | 10:00 | 69 | 59 | 71 | 30.36 | 130 | 0 | 0.00 |
| 16 | 07/12 | 09:00 | 62 | 54 | 76 | 30.38 | 110 | 1 | 0.00 |
| 17 | 07/12 | 08:00 | 57 | 53 | 87 | 30.39 | 10 | 0 | 0.00 |
| 18 | miss | miss | miss | miss | miss | miss | miss | miss | |
| 19 | 07/12 | 04:01 | 57 | 51 | 81 | 30.41 | 10 | 0 | 0.00 |
| 20 | miss | miss | miss | miss | miss | miss | miss | miss | |
| 21 | 07/12 | 04:00 | 57 | 51 | 81 | 30.41 | 10 | 0 | 0.00 |
| 22 | 07/12 | 03:00 | 58 | 51 | 79 | 30.41 | 10 | 0 | 0.00 |
| 23 | 07/12 | 02:00 | 59 | 51 | 76 | 30.41 | 10 | 0 | 0.00 |
| 24 | 07/12 | 01:00 | 61 | 52 | 73 | 30.41 | 10 | 0 | 0.00 |